createdAt,value
2022-09-07T00:01:07.706Z,13.07
2022-09-07T00:06:16.115Z,12.85
2022-09-07T00:11:22.122Z,12.79
2022-09-07T00:16:30.110Z,12.73
2022-09-07T00:21:36.676Z,12.50
2022-09-07T00:26:41.889Z,12.26
2022-09-07T00:31:46.885Z,12.38
2022-09-07T00:36:53.172Z,12.48
2022-09-07T00:41:57.856Z,12.51
2022-09-07T00:47:03.217Z,12.48
2022-09-07T00:52:12.880Z,12.29
2022-09-07T00:57:17.601Z,12.23
2022-09-07T01:02:22.800Z,12.21
2022-09-07T01:07:29.915Z,12.07
2022-09-07T01:12:34.825Z,11.93
2022-09-07T01:17:51.263Z,11.66
2022-09-07T01:23:29.360Z,11.74
2022-09-07T01:28:36.981Z,11.66
2022-09-07T01:33:52.348Z,11.69
2022-09-07T01:39:01.080Z,11.58
2022-09-07T01:44:14.378Z,11.62
2022-09-07T01:49:23.542Z,11.57
2022-09-07T01:54:33.956Z,11.51
2022-09-07T01:59:44.663Z,11.25
2022-09-07T02:04:54.402Z,11.35
2022-09-07T02:10:02.837Z,11.36
2022-09-07T02:15:15.863Z,11.24
2022-09-07T02:20:24.111Z,11.15
2022-09-07T02:25:34.293Z,11.07
2022-09-07T02:30:41.150Z,11.04
2022-09-07T02:35:46.220Z,10.80
2022-09-07T02:40:53.858Z,10.60
2022-09-07T02:46:19.133Z,10.69
2022-09-07T02:51:34.117Z,10.42
2022-09-07T02:56:58.599Z,10.57
2022-09-07T03:02:13.892Z,10.42
2022-09-07T03:07:21.426Z,10.51
2022-09-07T03:12:26.331Z,10.32
2022-09-07T03:17:32.195Z,10.42
2022-09-07T03:22:36.934Z,10.37
2022-09-07T03:27:41.539Z,10.27
2022-09-07T03:32:48.280Z,10.34
2022-09-07T03:37:52.728Z,10.21
2022-09-07T03:42:57.716Z,10.26
2022-09-07T03:48:04.137Z,10.23
2022-09-07T03:53:08.994Z,10.21
2022-09-07T03:58:13.591Z,10.13
2022-09-07T04:03:19.594Z,9.86
2022-09-07T04:08:28.107Z,9.92
2022-09-07T04:13:33.852Z,9.75
2022-09-07T04:18:40.644Z,9.69
2022-09-07T04:23:45.874Z,9.50
2022-09-07T04:28:51.527Z,9.82
2022-09-07T04:33:58.147Z,9.86
2022-09-07T04:39:04.692Z,9.89
2022-09-07T04:44:12.572Z,9.92
2022-09-07T04:49:21.359Z,9.92
2022-09-07T04:54:26.746Z,10.20
2022-09-07T04:59:31.930Z,10.27
2022-09-07T05:04:38.552Z,10.33
2022-09-07T05:09:43.660Z,10.36
2022-09-07T05:14:48.568Z,10.43
2022-09-07T05:19:55.340Z,10.41
2022-09-07T05:25:00.959Z,10.59
2022-09-07T05:30:06.606Z,10.62
2022-09-07T05:35:14.898Z,10.88
2022-09-07T05:40:19.709Z,10.81
2022-09-07T05:45:24.612Z,10.86
2022-09-07T05:50:30.655Z,11.11
2022-09-07T05:55:35.857Z,11.26
2022-09-07T06:00:40.552Z,11.33
2022-09-07T06:05:47.261Z,11.59
2022-09-07T06:10:51.980Z,11.61
2022-09-07T06:15:56.863Z,11.65
2022-09-07T06:21:06.474Z,11.93
2022-09-07T06:26:13.214Z,11.87
2022-09-07T06:31:20.322Z,12.21
2022-09-07T06:36:29.053Z,13.66
2022-09-07T06:52:11.485Z,22.36
2022-09-07T06:57:15.825Z,22.74
2022-09-07T07:02:20.075Z,24.84
2022-09-07T07:07:27.089Z,25.30
2022-09-07T07:17:35.249Z,27.71
2022-09-07T07:22:48.409Z,28.04
2022-09-07T07:27:53.546Z,28.19
2022-09-07T07:32:59.477Z,28.60
2022-09-07T07:43:32.065Z,26.97
2022-09-07T07:48:37.988Z,25.77
2022-09-07T07:53:44.606Z,27.71
2022-09-07T07:58:49.764Z,27.95
2022-09-07T08:03:54.504Z,27.04
2022-09-07T08:09:00.679Z,26.07
2022-09-07T08:14:06.291Z,25.44
2022-09-07T08:19:10.758Z,24.84
2022-09-07T08:24:16.719Z,23.94
2022-09-07T08:29:21.261Z,23.83
2022-09-07T08:34:25.981Z,23.41
2022-09-07T08:39:31.763Z,23.94
2022-09-07T08:44:43.234Z,23.41
2022-09-07T08:49:54.672Z,22.58
2022-09-07T08:55:05.023Z,22.65
2022-09-07T09:00:15.673Z,21.98
2022-09-07T09:05:29.568Z,21.72
2022-09-07T09:10:45.144Z,23.13
2022-09-07T09:16:01.062Z,23.62
2022-09-07T09:21:10.348Z,22.18
2022-09-07T09:26:23.221Z,23.03
2022-09-07T09:31:34.768Z,23.72
2022-09-07T09:36:45.992Z,24.37
2022-09-07T09:41:51.982Z,23.73
2022-09-07T09:52:30.737Z,24.96
2022-09-07T10:08:57.229Z,23.42
2022-09-07T10:14:04.870Z,24.23
2022-09-07T10:19:26.948Z,24.19
2022-09-07T10:24:38.095Z,25.56
2022-09-07T10:29:44.316Z,25.40
2022-09-07T10:35:02.327Z,24.73
2022-09-07T10:40:22.462Z,24.48
2022-09-07T10:45:39.799Z,24.57
2022-09-07T10:50:50.844Z,25.37
2022-09-07T10:56:06.754Z,26.10
2022-09-07T11:01:22.795Z,25.35
2022-09-07T11:06:33.962Z,26.26
2022-09-07T11:17:17.344Z,27.20
2022-09-07T11:22:31.946Z,27.17
2022-09-07T11:27:42.793Z,26.58
2022-09-07T11:32:55.671Z,26.51
2022-09-07T11:38:06.746Z,25.88
2022-09-07T11:43:20.686Z,26.30
2022-09-07T11:48:31.281Z,25.97
2022-09-07T11:53:40.126Z,26.88
2022-09-07T11:59:17.956Z,26.63
2022-09-07T12:04:51.718Z,26.71
2022-09-07T12:10:24.910Z,26.08
2022-09-07T12:15:38.117Z,26.38
2022-09-07T12:20:45.761Z,26.66
2022-09-07T12:25:52.369Z,27.49
2022-09-07T12:31:00.803Z,27.83
2022-09-07T12:36:47.556Z,27.69
2022-09-07T12:42:32.256Z,27.23
2022-09-07T12:47:37.056Z,27.30
2022-09-07T12:53:04.944Z,27.67
2022-09-07T12:58:31.501Z,27.17
2022-09-07T13:04:02.479Z,27.55
2022-09-07T13:09:30.640Z,26.67
2022-09-07T13:14:42.852Z,28.25
2022-09-07T13:20:30.666Z,28.38
2022-09-07T13:25:48.064Z,27.21
2022-09-07T13:31:06.853Z,27.59
2022-09-07T13:36:22.234Z,28.27
2022-09-07T13:41:33.369Z,28.41
2022-09-07T13:46:51.991Z,29.83
2022-09-07T13:52:04.876Z,30.46
2022-09-07T13:57:20.953Z,30.85
2022-09-07T14:02:30.501Z,33.04
2022-09-07T14:07:34.998Z,33.18
2022-09-07T14:12:46.549Z,34.16
2022-09-07T14:18:01.907Z,34.92
2022-09-07T14:23:12.989Z,36.10
2022-09-07T14:28:37.561Z,34.79
2022-09-07T14:33:51.790Z,33.13
2022-09-07T14:39:04.767Z,34.02
2022-09-07T14:44:29.375Z,33.76
2022-09-07T14:49:36.345Z,31.87
2022-09-07T14:54:41.624Z,31.10
2022-09-07T14:59:47.355Z,29.10
2022-09-07T15:05:27.920Z,27.08
2022-09-07T15:10:41.629Z,26.12
2022-09-07T15:15:58.806Z,25.58
2022-09-07T15:21:05.172Z,25.93
2022-09-07T15:27:02.034Z,25.66
2022-09-07T15:31:42.535Z,25.65
2022-09-07T15:36:52.482Z,25.11
2022-09-07T15:41:58.197Z,24.77
2022-09-07T15:52:33.097Z,24.84
2022-09-07T15:58:02.161Z,24.76
2022-09-07T16:03:05.661Z,24.08
2022-09-07T16:08:32.670Z,23.99
2022-09-07T16:13:38.093Z,23.89
2022-09-07T16:18:46.593Z,23.68
2022-09-07T16:23:55.805Z,23.68
2022-09-07T16:29:01.493Z,23.46
2022-09-07T16:34:06.250Z,23.42
2022-09-07T16:39:12.752Z,23.34
2022-09-07T16:44:17.987Z,22.82
2022-09-07T16:49:22.837Z,22.62
2022-09-07T16:54:28.749Z,22.64
2022-09-07T16:59:33.073Z,22.36
2022-09-07T17:04:37.778Z,22.20
2022-09-07T17:09:44.163Z,21.74
2022-09-07T17:14:48.935Z,21.40
2022-09-07T17:19:53.410Z,21.21
2022-09-07T17:24:59.045Z,21.13
2022-09-07T17:30:06.578Z,20.87
2022-09-07T17:35:11.608Z,20.53
2022-09-07T17:40:18.057Z,20.48
2022-09-07T17:45:22.805Z,20.44
2022-09-07T17:50:27.926Z,20.38
2022-09-07T17:55:34.405Z,20.32
2022-09-07T18:00:40.737Z,20.17
2022-09-07T18:05:45.702Z,19.89
2022-09-07T18:16:19.647Z,19.65
2022-09-07T18:21:26.502Z,19.55
2022-09-07T18:26:33.664Z,19.31
2022-09-07T18:31:38.149Z,19.30
2022-09-07T18:36:43.939Z,19.22
2022-09-07T18:41:50.620Z,18.95
2022-09-07T18:46:55.322Z,18.97
2022-09-07T18:57:25.662Z,18.86
2022-09-07T19:02:30.025Z,18.77
2022-09-07T19:07:34.773Z,18.79
2022-09-07T19:12:45.069Z,18.74
2022-09-07T19:17:50.335Z,18.79
2022-09-07T19:22:56.259Z,18.56
2022-09-07T19:28:02.007Z,18.51
2022-09-07T19:33:10.119Z,18.51
2022-09-07T19:38:14.279Z,18.40
2022-09-07T19:43:20.051Z,18.31
2022-09-07T19:48:24.572Z,18.22
2022-09-07T19:53:33.078Z,18.22
2022-09-07T19:58:41.428Z,18.13
2022-09-07T20:03:49.760Z,18.10
2022-09-07T20:08:54.004Z,17.96
2022-09-07T20:13:59.714Z,17.83
2022-09-07T20:19:04.949Z,17.86
2022-09-07T20:24:09.693Z,17.83
2022-09-07T20:29:27.400Z,17.72
2022-09-07T20:34:33.769Z,17.64
2022-09-07T20:39:39.672Z,17.41
2022-09-07T20:44:46.345Z,17.37
2022-09-07T20:49:52.420Z,17.32
2022-09-07T20:54:56.718Z,17.33
2022-09-07T21:00:02.768Z,17.17
2022-09-07T21:05:08.039Z,17.15
2022-09-07T21:10:12.390Z,17.02
2022-09-07T21:15:18.969Z,17.09
2022-09-07T21:20:23.247Z,16.94
2022-09-07T21:25:28.136Z,16.99
2022-09-07T21:30:33.946Z,16.87
2022-09-07T21:35:38.633Z,16.80
2022-09-07T21:40:43.069Z,16.66
2022-09-07T21:45:49.794Z,16.57
2022-09-07T21:50:58.085Z,16.55
2022-09-07T21:56:05.232Z,16.48
2022-09-07T22:01:17.378Z,16.40
2022-09-07T22:06:22.323Z,16.51
2022-09-07T22:11:28.551Z,16.42
2022-09-07T22:16:36.161Z,16.34
2022-09-07T22:21:41.061Z,16.32
2022-09-07T22:26:46.645Z,16.18
2022-09-07T22:31:52.586Z,16.11
2022-09-07T22:36:57.431Z,15.95
2022-09-07T22:42:01.859Z,16.02
2022-09-07T22:47:07.861Z,15.75
2022-09-07T22:52:13.022Z,15.79
2022-09-07T22:57:17.506Z,15.74
2022-09-07T23:02:23.614Z,15.73
2022-09-07T23:07:28.126Z,15.62
2022-09-07T23:12:32.649Z,15.51
2022-09-07T23:17:38.556Z,15.50
2022-09-07T23:22:45.433Z,15.51
2022-09-07T23:27:50.131Z,15.52
2022-09-07T23:32:56.882Z,15.43
2022-09-07T23:38:01.289Z,15.39
2022-09-07T23:43:05.987Z,15.40
2022-09-07T23:48:11.649Z,15.34
2022-09-07T23:53:16.692Z,15.29
2022-09-07T23:58:22.911Z,15.34
